createdAt,value
2022-10-23T00:00:03.536Z,10.84
2022-10-23T00:03:06.602Z,10.80
2022-10-23T00:06:09.558Z,10.70
2022-10-23T00:09:12.973Z,10.65
2022-10-23T00:12:15.463Z,10.62
2022-10-23T00:15:19.602Z,10.65
2022-10-23T00:18:22.060Z,10.67
2022-10-23T00:21:24.339Z,10.67
2022-10-23T00:24:26.935Z,10.91
2022-10-23T00:27:29.161Z,10.98
2022-10-23T00:30:31.644Z,11.07
2022-10-23T00:33:33.884Z,11.13
2022-10-23T00:36:36.399Z,11.15
2022-10-23T00:39:38.575Z,11.16
2022-10-23T00:42:41.292Z,11.12
2022-10-23T00:45:43.769Z,11.10
2022-10-23T00:48:46.516Z,11.03
2022-10-23T00:51:50.155Z,10.93
2022-10-23T00:54:52.715Z,10.85
2022-10-23T00:57:54.922Z,10.83
2022-10-23T01:00:57.688Z,10.79
2022-10-23T01:04:01.230Z,10.76
2022-10-23T01:07:09.102Z,10.71
2022-10-23T01:10:16.742Z,10.74
2022-10-23T01:13:28.646Z,10.67
2022-10-23T01:16:44.104Z,10.59
2022-10-23T01:20:06.978Z,10.64
2022-10-23T01:23:17.455Z,10.63
2022-10-23T01:26:27.766Z,10.53
2022-10-23T01:29:59.152Z,10.50
2022-10-23T01:33:09.817Z,10.46
2022-10-23T01:36:14.438Z,10.52
2022-10-23T01:39:21.288Z,10.46
2022-10-23T01:42:30.348Z,10.56
2022-10-23T01:45:40.573Z,10.55
2022-10-23T01:48:47.651Z,10.50
2022-10-23T01:51:55.331Z,10.51
2022-10-23T01:54:59.881Z,10.60
2022-10-23T01:58:04.992Z,10.57
2022-10-23T02:01:11.318Z,10.58
2022-10-23T02:04:21.699Z,10.53
2022-10-23T02:07:24.306Z,10.49
2022-10-23T02:10:33.106Z,10.51
2022-10-23T02:13:59.560Z,10.51
2022-10-23T02:17:09.432Z,10.53
2022-10-23T02:20:21.034Z,10.58
2022-10-23T02:23:35.686Z,10.59
2022-10-23T02:26:40.300Z,10.62
2022-10-23T02:29:45.980Z,10.62
2022-10-23T02:32:50.195Z,10.65
2022-10-23T02:35:52.998Z,10.67
2022-10-23T02:38:55.865Z,10.60
2022-10-23T02:41:58.394Z,10.47
2022-10-23T02:45:06.931Z,10.40
2022-10-23T02:48:09.508Z,10.32
2022-10-23T02:51:34.828Z,10.31
2022-10-23T02:54:40.462Z,10.36
2022-10-23T02:57:46.201Z,10.27
2022-10-23T03:00:53.959Z,10.14
2022-10-23T03:04:01.048Z,10.01
2022-10-23T03:07:03.689Z,9.88
2022-10-23T03:10:06.360Z,9.72
2022-10-23T03:13:09.825Z,9.59
2022-10-23T03:16:15.342Z,9.54
2022-10-23T03:19:23.668Z,9.55
2022-10-23T03:22:25.876Z,9.72
2022-10-23T03:25:28.639Z,9.58
2022-10-23T03:28:33.015Z,9.45
2022-10-23T03:31:35.738Z,9.32
2022-10-23T03:34:38.073Z,9.29
2022-10-23T03:37:42.916Z,9.24
2022-10-23T03:40:45.651Z,9.15
2022-10-23T03:43:48.367Z,9.11
2022-10-23T03:46:51.282Z,9.06
2022-10-23T03:49:53.843Z,9.03
2022-10-23T03:52:56.192Z,9.04
2022-10-23T03:55:58.751Z,9.14
2022-10-23T03:59:00.983Z,9.06
2022-10-23T04:02:03.591Z,9.03
2022-10-23T04:05:06.392Z,8.95
2022-10-23T04:08:09.179Z,8.87
2022-10-23T04:11:12.143Z,8.82
2022-10-23T04:14:17.683Z,8.88
2022-10-23T04:17:20.275Z,8.94
2022-10-23T04:20:30.329Z,8.94
2022-10-23T04:23:36.812Z,8.93
2022-10-23T04:26:40.043Z,8.93
2022-10-23T04:29:44.924Z,8.95
2022-10-23T04:32:50.413Z,9.04
2022-10-23T04:35:52.965Z,9.09
2022-10-23T04:38:55.357Z,9.21
2022-10-23T04:41:57.951Z,9.31
2022-10-23T04:45:00.460Z,9.21
2022-10-23T04:48:03.360Z,9.14
2022-10-23T04:51:12.734Z,9.22
2022-10-23T04:54:15.320Z,9.35
2022-10-23T04:57:17.688Z,9.33
2022-10-23T05:00:24.389Z,9.21
2022-10-23T05:03:27.107Z,9.17
2022-10-23T05:06:29.658Z,9.05
2022-10-23T05:09:34.140Z,8.94
2022-10-23T05:12:38.841Z,8.98
2022-10-23T05:15:41.058Z,8.91
2022-10-23T05:18:45.681Z,8.85
2022-10-23T05:21:49.420Z,8.75
2022-10-23T05:24:54.574Z,8.70
2022-10-23T05:27:57.221Z,8.67
2022-10-23T05:31:04.110Z,8.66
2022-10-23T05:34:09.884Z,8.62
2022-10-23T05:37:17.358Z,8.63
2022-10-23T05:40:20.112Z,8.67
2022-10-23T05:43:23.301Z,8.67
2022-10-23T05:46:27.883Z,8.70
2022-10-23T05:49:30.697Z,8.74
2022-10-23T05:52:42.457Z,8.79
2022-10-23T05:55:45.447Z,8.82
2022-10-23T05:58:47.858Z,8.88
2022-10-23T06:01:50.816Z,8.96
2022-10-23T06:04:53.896Z,9.04
2022-10-23T06:07:57.693Z,9.18
2022-10-23T06:11:07.679Z,9.31
2022-10-23T06:14:10.283Z,9.45
2022-10-23T06:17:13.366Z,9.59
2022-10-23T06:20:16.351Z,9.75
2022-10-23T06:23:20.054Z,9.83
2022-10-23T06:26:24.789Z,9.96
2022-10-23T06:29:27.604Z,10.14
2022-10-23T06:32:33.084Z,10.33
2022-10-23T06:35:36.710Z,10.39
2022-10-23T06:38:40.702Z,10.41
2022-10-23T06:41:45.381Z,10.46
2022-10-23T06:44:54.191Z,10.49
2022-10-23T06:48:03.889Z,10.53
2022-10-23T06:51:08.114Z,10.58
2022-10-23T06:54:11.411Z,10.74
2022-10-23T06:57:15.986Z,10.87
2022-10-23T07:00:18.939Z,11.01
2022-10-23T07:03:21.699Z,11.08
2022-10-23T07:06:24.776Z,11.20
2022-10-23T07:09:28.137Z,11.27
2022-10-23T07:12:44.333Z,11.39
2022-10-23T07:15:48.026Z,11.48
2022-10-23T07:18:58.793Z,11.65
2022-10-23T07:22:04.471Z,11.76
2022-10-23T07:25:08.207Z,11.96
2022-10-23T07:28:11.212Z,12.23
2022-10-23T07:31:14.013Z,12.42
2022-10-23T07:34:17.081Z,12.85
2022-10-23T07:37:20.178Z,13.00
2022-10-23T07:40:22.460Z,12.99
2022-10-23T07:43:26.270Z,12.97
2022-10-23T07:46:28.622Z,13.07
2022-10-23T07:49:31.440Z,13.11
2022-10-23T07:52:36.080Z,13.10
2022-10-23T07:55:40.373Z,13.19
2022-10-23T07:58:44.329Z,13.24
2022-10-23T08:01:50.489Z,13.17
2022-10-23T08:04:55.692Z,13.33
2022-10-23T08:07:58.835Z,13.46
2022-10-23T08:11:01.701Z,13.82
2022-10-23T08:14:05.036Z,13.98
2022-10-23T08:17:09.957Z,13.98
2022-10-23T08:20:15.437Z,13.94
2022-10-23T08:23:19.860Z,13.70
2022-10-23T08:26:22.817Z,13.82
2022-10-23T08:29:25.584Z,13.89
2022-10-23T08:32:30.309Z,13.83
2022-10-23T08:35:39.497Z,13.96
2022-10-23T08:38:41.891Z,14.00
2022-10-23T08:41:50.539Z,14.04
2022-10-23T08:45:05.839Z,14.13
2022-10-23T08:48:30.574Z,14.16
2022-10-23T08:51:41.741Z,14.22
2022-10-23T08:54:53.656Z,14.26
2022-10-23T08:58:15.920Z,14.29
2022-10-23T09:01:30.471Z,14.44
2022-10-23T09:04:32.902Z,14.53
2022-10-23T09:07:54.172Z,14.51
2022-10-23T09:11:15.446Z,14.69
2022-10-23T09:14:36.555Z,14.57
2022-10-23T09:17:41.378Z,14.45
2022-10-23T09:20:45.286Z,14.60
2022-10-23T09:23:47.563Z,14.63
2022-10-23T09:26:52.528Z,14.82
2022-10-23T09:29:55.566Z,15.05
2022-10-23T09:32:58.676Z,15.11
2022-10-23T09:36:02.662Z,15.27
2022-10-23T09:39:05.213Z,15.29
2022-10-23T09:42:27.708Z,15.46
2022-10-23T09:45:31.984Z,15.23
2022-10-23T09:48:34.880Z,15.41
2022-10-23T09:51:41.788Z,15.49
2022-10-23T09:54:46.476Z,15.70
2022-10-23T09:57:49.516Z,15.64
2022-10-23T10:00:54.697Z,15.72
2022-10-23T10:04:11.087Z,15.79
2022-10-23T10:07:20.121Z,15.93
2022-10-23T10:10:23.426Z,16.00
2022-10-23T10:13:25.661Z,16.05
2022-10-23T10:16:48.347Z,16.02
2022-10-23T10:20:06.672Z,16.00
2022-10-23T10:23:17.375Z,16.07
2022-10-23T10:29:46.268Z,16.25
2022-10-23T10:33:07.007Z,16.42
2022-10-23T10:36:20.861Z,16.30
2022-10-23T10:39:35.499Z,16.13
2022-10-23T10:42:44.590Z,16.15
2022-10-23T10:45:48.956Z,16.31
2022-10-23T10:48:58.445Z,16.25
2022-10-23T10:52:07.605Z,16.32
2022-10-23T10:55:15.850Z,16.35
2022-10-23T10:58:25.377Z,16.51
2022-10-23T11:01:35.226Z,16.54
2022-10-23T11:04:44.546Z,16.67
2022-10-23T11:08:07.442Z,16.69
2022-10-23T11:11:15.900Z,16.47
2022-10-23T11:14:19.585Z,16.61
2022-10-23T11:17:25.867Z,16.72
2022-10-23T11:20:40.788Z,16.74
2022-10-23T11:23:46.207Z,16.85
2022-10-23T11:27:02.706Z,16.91
2022-10-23T11:30:17.357Z,16.78
2022-10-23T11:33:25.896Z,16.92
2022-10-23T11:36:42.991Z,16.79
2022-10-23T11:39:59.849Z,16.70
2022-10-23T11:43:02.102Z,16.52
2022-10-23T11:46:14.772Z,16.54
2022-10-23T11:49:21.182Z,16.71
2022-10-23T11:52:24.868Z,16.78
2022-10-23T11:55:28.894Z,16.84
2022-10-23T11:58:58.683Z,17.07
2022-10-23T12:02:02.657Z,17.18
2022-10-23T12:05:07.273Z,17.03
2022-10-23T12:08:20.135Z,17.05
2022-10-23T12:11:27.936Z,17.09
2022-10-23T12:14:30.202Z,17.04
2022-10-23T12:17:35.842Z,16.74
2022-10-23T12:20:41.140Z,16.85
2022-10-23T12:23:52.020Z,16.94
2022-10-23T12:27:00.654Z,17.13
2022-10-23T12:30:12.322Z,16.99
2022-10-23T12:33:14.670Z,16.73
2022-10-23T12:36:31.579Z,16.60
2022-10-23T12:39:39.159Z,16.46
2022-10-23T12:42:50.045Z,16.38
2022-10-23T12:45:54.548Z,16.79
2022-10-23T12:48:58.100Z,17.16
2022-10-23T12:52:02.361Z,17.29
2022-10-23T12:55:12.311Z,17.16
2022-10-23T12:58:31.954Z,16.78
2022-10-23T13:01:35.319Z,16.72
2022-10-23T13:04:38.641Z,16.77
2022-10-23T13:07:46.359Z,16.66
2022-10-23T13:10:50.364Z,16.91
2022-10-23T13:13:53.726Z,16.90
2022-10-23T13:17:14.026Z,17.21
2022-10-23T13:20:26.453Z,17.48
2022-10-23T13:23:35.551Z,17.38
2022-10-23T13:26:45.119Z,17.32
2022-10-23T13:29:47.858Z,17.07
2022-10-23T13:32:50.861Z,16.92
2022-10-23T13:36:07.198Z,16.78
2022-10-23T13:39:09.937Z,16.78
2022-10-23T13:42:14.492Z,16.50
2022-10-23T13:45:20.759Z,16.57
2022-10-23T13:48:23.239Z,16.78
2022-10-23T13:51:27.608Z,16.83
2022-10-23T13:54:30.440Z,16.76
2022-10-23T13:57:33.226Z,16.62
2022-10-23T14:00:36.036Z,16.62
2022-10-23T14:03:38.737Z,16.46
2022-10-23T14:06:42.151Z,16.40
2022-10-23T14:09:45.948Z,16.31
2022-10-23T14:12:53.483Z,16.18
2022-10-23T14:15:56.417Z,16.11
2022-10-23T14:18:58.991Z,16.20
2022-10-23T14:22:01.673Z,16.15
2022-10-23T14:25:04.860Z,16.16
2022-10-23T14:28:07.532Z,16.19
2022-10-23T14:31:11.895Z,16.17
2022-10-23T14:34:14.681Z,16.06
2022-10-23T14:37:18.168Z,16.14
2022-10-23T14:40:21.057Z,16.06
2022-10-23T14:43:24.266Z,16.04
2022-10-23T14:46:27.949Z,15.98
2022-10-23T14:49:30.933Z,15.99
2022-10-23T14:52:33.635Z,15.97
2022-10-23T14:55:36.069Z,15.97
2022-10-23T14:58:39.062Z,15.98
2022-10-23T15:01:45.359Z,15.95
2022-10-23T15:04:48.481Z,15.98
2022-10-23T15:07:51.905Z,15.92
2022-10-23T15:10:59.107Z,15.89
2022-10-23T15:14:01.827Z,15.85
2022-10-23T15:17:04.668Z,15.89
2022-10-23T15:20:08.825Z,15.91
2022-10-23T15:23:11.550Z,15.86
2022-10-23T15:26:20.001Z,15.82
2022-10-23T15:29:23.772Z,15.75
2022-10-23T15:32:26.637Z,15.70
2022-10-23T15:35:29.408Z,15.67
2022-10-23T15:38:31.900Z,15.66
2022-10-23T15:41:35.930Z,15.66
2022-10-23T15:44:39.548Z,15.63
2022-10-23T15:47:42.675Z,15.59
2022-10-23T15:50:45.434Z,15.57
2022-10-23T15:53:48.585Z,15.51
2022-10-23T15:56:52.516Z,15.48
2022-10-23T15:59:55.370Z,15.44
2022-10-23T16:02:57.928Z,15.44
2022-10-23T16:06:03.750Z,15.42
2022-10-23T16:09:06.187Z,15.34
2022-10-23T16:12:08.992Z,15.33
2022-10-23T16:15:11.534Z,15.32
2022-10-23T16:18:18.019Z,15.33
2022-10-23T16:21:23.071Z,15.32
2022-10-23T16:24:26.493Z,15.28
2022-10-23T16:27:29.907Z,15.28
2022-10-23T16:30:32.761Z,15.30
2022-10-23T16:33:35.294Z,15.28
2022-10-23T16:36:39.134Z,15.27
2022-10-23T16:39:43.327Z,15.27
2022-10-23T16:42:53.306Z,15.24
2022-10-23T16:46:02.180Z,15.23
2022-10-23T16:49:06.225Z,15.38
2022-10-23T16:52:10.187Z,15.47
2022-10-23T16:55:12.896Z,15.55
2022-10-23T16:58:15.476Z,15.62
2022-10-23T17:01:20.882Z,15.69
2022-10-23T17:04:23.881Z,15.69
2022-10-23T17:07:26.762Z,15.76
2022-10-23T17:10:29.410Z,15.80
2022-10-23T17:13:32.593Z,15.87
2022-10-23T17:16:35.222Z,15.83
2022-10-23T17:19:45.682Z,15.94
2022-10-23T17:22:48.650Z,15.97
2022-10-23T17:25:51.465Z,15.96
2022-10-23T17:28:54.261Z,15.94
2022-10-23T17:31:57.101Z,15.92
2022-10-23T17:34:59.589Z,15.97
2022-10-23T17:38:02.412Z,15.86
2022-10-23T17:41:05.986Z,15.86
2022-10-23T17:44:08.747Z,15.92
2022-10-23T17:47:11.840Z,15.87
2022-10-23T17:50:14.721Z,15.83
2022-10-23T17:53:17.368Z,15.81
2022-10-23T17:56:25.936Z,15.84
2022-10-23T17:59:28.464Z,15.78
2022-10-23T18:02:31.747Z,15.73
2022-10-23T18:05:35.009Z,15.73
2022-10-23T18:08:38.674Z,15.74
2022-10-23T18:11:45.259Z,15.67
2022-10-23T18:14:50.299Z,15.69
2022-10-23T18:17:53.416Z,15.64
2022-10-23T18:20:59.633Z,15.59
2022-10-23T18:24:03.253Z,15.64
2022-10-23T18:27:06.963Z,15.57
2022-10-23T18:30:10.079Z,15.54
2022-10-23T18:33:12.571Z,15.54
2022-10-23T18:36:21.276Z,15.51
2022-10-23T18:39:24.933Z,15.50
2022-10-23T18:42:27.705Z,15.47
2022-10-23T18:45:30.616Z,15.44
2022-10-23T18:48:33.576Z,15.46
2022-10-23T18:51:36.986Z,15.50
2022-10-23T18:54:40.446Z,15.50
2022-10-23T18:57:43.288Z,15.52
2022-10-23T19:00:52.164Z,15.47
2022-10-23T19:07:03.774Z,15.44
2022-10-23T19:10:06.776Z,15.39
2022-10-23T19:13:10.298Z,15.45
2022-10-23T19:16:15.247Z,15.43
2022-10-23T19:19:22.928Z,15.40
2022-10-23T19:22:27.654Z,15.41
2022-10-23T19:25:33.317Z,15.35
2022-10-23T19:28:40.035Z,15.35
2022-10-23T19:31:48.927Z,15.30
2022-10-23T19:34:51.925Z,15.31
2022-10-23T19:37:55.121Z,15.30
2022-10-23T19:40:57.721Z,15.24
2022-10-23T19:44:00.656Z,15.18
2022-10-23T19:47:03.392Z,15.20
2022-10-23T19:50:06.829Z,15.16
2022-10-23T19:53:11.784Z,15.16
2022-10-23T19:56:14.709Z,15.18
2022-10-23T19:59:18.632Z,15.16
2022-10-23T20:02:24.552Z,15.21
2022-10-23T20:05:27.505Z,15.17
2022-10-23T20:08:32.780Z,15.14
2022-10-23T20:11:39.438Z,15.12
2022-10-23T20:14:42.285Z,15.11
2022-10-23T20:17:45.118Z,15.11
2022-10-23T20:20:47.725Z,15.05
2022-10-23T20:23:50.625Z,15.04
2022-10-23T20:26:54.386Z,14.99
2022-10-23T20:29:57.169Z,14.95
2022-10-23T20:32:59.698Z,14.98
2022-10-23T20:36:03.642Z,14.92
2022-10-23T20:39:07.331Z,14.91
2022-10-23T20:42:10.118Z,14.91
2022-10-23T20:45:12.539Z,14.91
2022-10-23T20:48:15.257Z,14.88
2022-10-23T20:51:19.090Z,14.84
2022-10-23T20:54:22.501Z,14.80
2022-10-23T20:57:24.802Z,14.69
2022-10-23T21:00:27.530Z,14.64
2022-10-23T21:03:29.839Z,14.58
2022-10-23T21:06:46.176Z,14.48
2022-10-23T21:09:57.581Z,14.43
2022-10-23T21:13:00.190Z,14.38
2022-10-23T21:16:12.835Z,14.33
2022-10-23T21:19:16.049Z,14.29
2022-10-23T21:22:18.272Z,14.33
2022-10-23T21:25:20.937Z,14.41
2022-10-23T21:28:23.259Z,14.39
2022-10-23T21:31:25.779Z,14.35
2022-10-23T21:34:28.653Z,14.33
2022-10-23T21:37:31.144Z,14.33
2022-10-23T21:40:33.408Z,14.31
2022-10-23T21:43:35.957Z,14.34
2022-10-23T21:46:39.003Z,14.37
2022-10-23T21:49:41.636Z,14.42
2022-10-23T21:52:44.087Z,14.43
2022-10-23T21:55:46.809Z,14.43
2022-10-23T21:58:49.151Z,14.50
2022-10-23T22:01:52.031Z,14.50
2022-10-23T22:04:54.782Z,14.46
2022-10-23T22:07:57.040Z,14.39
2022-10-23T22:10:59.566Z,14.32
2022-10-23T22:14:01.758Z,14.25
2022-10-23T22:17:04.252Z,14.18
2022-10-23T22:20:07.130Z,14.14
2022-10-23T22:23:09.629Z,14.23
2022-10-23T22:26:20.107Z,14.18
2022-10-23T22:29:23.811Z,14.24
2022-10-23T22:32:25.971Z,14.28
2022-10-23T22:35:29.601Z,14.27
2022-10-23T22:38:32.245Z,14.27
2022-10-23T22:41:35.160Z,14.24
2022-10-23T22:44:37.390Z,14.22
2022-10-23T22:47:39.908Z,14.23
2022-10-23T22:50:42.213Z,14.27
2022-10-23T22:53:44.870Z,14.36
2022-10-23T22:56:47.139Z,14.34
2022-10-23T22:59:49.775Z,14.32
2022-10-23T23:02:52.141Z,14.35
2022-10-23T23:05:54.741Z,14.29
2022-10-23T23:08:57.061Z,14.20
2022-10-23T23:11:59.501Z,14.18
2022-10-23T23:15:01.780Z,14.11
2022-10-23T23:18:05.000Z,14.06
2022-10-23T23:21:07.297Z,13.97
2022-10-23T23:24:10.509Z,13.87
2022-10-23T23:27:12.663Z,13.82
2022-10-23T23:30:15.357Z,13.84
2022-10-23T23:33:22.294Z,13.87
2022-10-23T23:36:26.119Z,13.92
2022-10-23T23:39:28.723Z,14.00
2022-10-23T23:42:31.377Z,14.04
2022-10-23T23:45:33.617Z,14.03
2022-10-23T23:48:36.449Z,14.04
2022-10-23T23:51:38.805Z,14.07
2022-10-23T23:54:41.389Z,14.07
2022-10-23T23:57:43.917Z,14.13
